sensor_id;sensor_type;location;lat;lon;timestamp;pressure;altitude;pressure_sealevel;temperature;humidity
73306;BME280;61530;51.158;0.880;2023-04-01T00:00:56;993.69;;;9.125;40.6989
73306;BME280;61530;51.158;0.880;2023-04-01T00:01:58;993.724;;;9.0625;40.8714
73306;BME280;61530;51.158;0.880;2023-04-01T00:03:02;993.719;;;9.125;41.4171
73306;BME280;61530;51.158;0.880;2023-04-01T00:04:05;993.713;;;9.0625;41.7209
73306;BME280;61530;51.158;0.880;2023-04-01T00:05:11;993.724;;;9.125;41.1186
73306;BME280;61530;51.158;0.880;2023-04-01T00:06:17;993.702;;;9.125;40.2905
73306;BME280;61530;51.158;0.880;2023-04-01T00:07:18;993.716;;;9.0;41.2156
73306;BME280;61530;51.158;0.880;2023-04-01T00:08:22;993.743;;;9.125;40.9743
73306;BME280;61530;51.158;0.880;2023-04-01T00:09:27;993.744;;;9.0625;41.3875
73306;BME280;61530;51.158;0.880;2023-04-01T00:10:30;993.705;;;9.0625;42.4299
73306;BME280;61530;51.158;0.880;2023-04-01T00:11:34;993.727;;;9.0625;43.6736
73306;BME280;61530;51.158;0.880;2023-04-01T00:12:38;993.774;;;9.125;42.819
73306;BME280;61530;51.158;0.880;2023-04-01T00:13:43;993.739;;;9.0625;43.2078
73306;BME280;61530;51.158;0.880;2023-04-01T00:14:46;993.769;;;9.0625;42.8296
73306;BME280;61530;51.158;0.880;2023-04-01T00:15:50;993.766;;;9.0625;42.5286
73306;BME280;61530;51.158;0.880;2023-04-01T00:16:53;993.842;;;9.0;42.402
73306;BME280;61530;51.158;0.880;2023-04-01T00:17:59;993.805;;;9.0625;42.1491
73306;BME280;61530;51.158;0.880;2023-04-01T00:19:02;993.837;;;9.125;42.1963
73306;BME280;61530;51.158;0.880;2023-04-01T00:20:07;993.867;;;9.125;43.458
73306;BME280;61530;51.158;0.880;2023-04-01T00:21:09;993.862;;;9.0625;41.8402
73306;BME280;61530;51.158;0.880;2023-04-01T00:22:15;993.879;;;9.0625;42.8746
73306;BME280;61530;51.158;0.880;2023-04-01T00:23:19;993.872;;;9.0;42.2687
73306;BME280;61530;51.158;0.880;2023-04-01T00:24:22;993.915;;;9.0625;42.3278
73306;BME280;61530;51.158;0.880;2023-04-01T00:25:25;993.927;;;9.0625;41.8524
73306;BME280;61530;51.158;0.880;2023-04-01T00:26:31;993.938;;;9.125;42.5409
73306;BME280;61530;51.158;0.880;2023-04-01T00:27:34;993.984;;;9.0625;41.2501
73306;BME280;61530;51.158;0.880;2023-04-01T00:28:38;993.955;;;9.0625;41.1867
73306;BME280;61530;51.158;0.880;2023-04-01T00:29:42;993.995;;;9.125;41.2325
73306;BME280;61530;51.158;0.880;2023-04-01T00:30:47;993.999;;;9.0;41.7327
73306;BME280;61530;51.158;0.880;2023-04-01T00:31:50;994.008;;;9.125;41.6906
73306;BME280;61530;51.158;0.880;2023-04-01T00:32:54;994.059;;;9.0625;42.4578
73306;BME280;61530;51.158;0.880;2023-04-01T00:33:57;994.067;;;9.0625;42.6492
73306;BME280;61530;51.158;0.880;2023-04-01T00:35:03;994.091;;;9.125;41.658
73306;BME280;61530;51.158;0.880;2023-04-01T00:36:08;994.116;;;9.0625;41.0206
73306;BME280;61530;51.158;0.880;2023-04-01T00:37:10;994.136;;;9.0625;40.3076
73306;BME280;61530;51.158;0.880;2023-04-01T00:38:14;994.118;;;9.125;40.6354
73306;BME280;61530;51.158;0.880;2023-04-01T00:39:19;994.112;;;9.1875;39.7843
73306;BME280;61530;51.158;0.880;2023-04-01T00:40:27;994.121;;;9.125;40.1697
73306;BME280;61530;51.158;0.880;2023-04-01T00:41:26;994.149;;;9.125;40.1985
73306;BME280;61530;51.158;0.880;2023-04-01T00:42:29;994.165;;;9.0;40.7332
73306;BME280;61530;51.158;0.880;2023-04-01T00:43:35;994.162;;;9.0625;41.0777
73306;BME280;61530;51.158;0.880;2023-04-01T00:44:39;994.161;;;9.125;40.555
73306;BME280;61530;51.158;0.880;2023-04-01T00:45:43;994.184;;;9.0625;40.371
73306;BME280;61530;51.158;0.880;2023-04-01T00:46:46;994.216;;;9.0;40.4169
73306;BME280;61530;51.158;0.880;2023-04-01T00:47:51;994.208;;;9.0625;40.5606
73306;BME280;61530;51.158;0.880;2023-04-01T00:48:55;994.268;;;8.9375;40.5262
73306;BME280;61530;51.158;0.880;2023-04-01T00:49:58;994.24;;;8.875;40.9394
73306;BME280;61530;51.158;0.880;2023-04-01T00:51:04;994.261;;;8.9375;41.1682
73306;BME280;61530;51.158;0.880;2023-04-01T00:52:08;994.295;;;8.9375;40.5145
73306;BME280;61530;51.158;0.880;2023-04-01T00:53:11;994.303;;;8.9375;40.3883
73306;BME280;61530;51.158;0.880;2023-04-01T00:54:15;994.3;;;8.9375;41.0485
73306;BME280;61530;51.158;0.880;2023-04-01T00:55:18;994.324;;;8.9375;40.7446
73306;BME280;61530;51.158;0.880;2023-04-01T00:56:26;994.332;;;8.9375;40.9506
73306;BME280;61530;51.158;0.880;2023-04-01T00:57:29;994.359;;;8.9375;40.675
73306;BME280;61530;51.158;0.880;2023-04-01T00:58:33;994.385;;;8.9375;40.4226
73306;BME280;61530;51.158;0.880;2023-04-01T00:59:35;994.388;;;8.9375;41.0372
73306;BME280;61530;51.158;0.880;2023-04-01T01:00:39;994.383;;;8.9375;40.1409
73306;BME280;61530;51.158;0.880;2023-04-01T01:01:42;994.405;;;8.9375;41.0837
73306;BME280;61530;51.158;0.880;2023-04-01T01:02:49;994.464;;;8.9375;39.8247
73306;BME280;61530;51.158;0.880;2023-04-01T01:03:49;994.462;;;8.9375;40.3998
73306;BME280;61530;51.158;0.880;2023-04-01T01:04:55;994.495;;;9.0625;38.8805
73306;BME280;61530;51.158;0.880;2023-04-01T01:06:08;994.469;;;9.0;39.6806
73306;BME280;61530;51.158;0.880;2023-04-01T01:07:12;994.5;;;8.875;40.3364
73306;BME280;61530;51.158;0.880;2023-04-01T01:08:11;994.51;;;9.0;39.9684
73306;BME280;61530;51.158;0.880;2023-04-01T01:09:20;994.522;;;8.9375;41.0433
73306;BME280;61530;51.158;0.880;2023-04-01T01:10:18;994.529;;;8.875;41.2211
73306;BME280;61530;51.158;0.880;2023-04-01T01:11:24;994.566;;;8.875;41.3469
73306;BME280;61530;51.158;0.880;2023-04-01T01:12:28;994.579;;;9.0;41.2889
73306;BME280;61530;51.158;0.880;2023-04-01T01:13:31;994.552;;;9.0;40.8644
73306;BME280;61530;51.158;0.880;2023-04-01T01:14:40;994.571;;;9.0;40.9224
73306;BME280;61530;51.158;0.880;2023-04-01T01:15:39;994.58;;;9.0625;40.7783
73306;BME280;61530;51.158;0.880;2023-04-01T01:16:42;994.594;;;8.9375;40.3593
73306;BME280;61530;51.158;0.880;2023-04-01T01:17:51;994.661;;;9.0625;40.7731
73306;BME280;61530;51.158;0.880;2023-04-01T01:18:52;994.66;;;9.0;41.0893
73306;BME280;61530;51.158;0.880;2023-04-01T01:34:38;994.732;;;8.8125;40.1007
73306;BME280;61530;51.158;0.880;2023-04-01T01:35:36;994.879;;;9.0625;39.5076
73306;BME280;61530;51.158;0.880;2023-04-01T01:36:38;994.882;;;9.0625;39.9395
73306;BME280;61530;51.158;0.880;2023-04-01T01:37:44;994.891;;;9.0625;39.2025
73306;BME280;61530;51.158;0.880;2023-04-01T01:38:48;994.873;;;9.0625;38.9837
73306;BME280;61530;51.158;0.880;2023-04-01T01:39:53;994.875;;;9.0625;39.3757
73306;BME280;61530;51.158;0.880;2023-04-01T01:40:56;994.89;;;9.0;40.2789
73306;BME280;61530;51.158;0.880;2023-04-01T01:42:02;994.905;;;9.0625;40.7564
73306;BME280;61530;51.158;0.880;2023-04-01T01:43:05;994.901;;;9.125;39.8879
73306;BME280;61530;51.158;0.880;2023-04-01T01:44:08;994.891;;;9.0;40.1582
73306;BME280;61530;51.158;0.880;2023-04-01T01:45:10;994.93;;;9.0;39.6346
73306;BME280;61530;51.158;0.880;2023-04-01T01:46:18;994.939;;;9.0;39.9167
73306;BME280;61530;51.158;0.880;2023-04-01T01:47:19;994.936;;;9.0;40.8827
73306;BME280;61530;51.158;0.880;2023-04-01T01:48:23;994.967;;;9.0;40.7504
73306;BME280;61530;51.158;0.880;2023-04-01T01:49:27;994.963;;;9.0625;40.4169
73306;BME280;61530;51.158;0.880;2023-04-01T01:50:31;994.976;;;9.0625;40.0719
73306;BME280;61530;51.158;0.880;2023-04-01T01:51:34;995.05;;;9.1875;40.2733
73306;BME280;61530;51.158;0.880;2023-04-01T01:52:38;995.041;;;9.125;39.8705
73306;BME280;61530;51.158;0.880;2023-04-01T01:53:41;995.078;;;9.0;40.0432
73306;BME280;61530;51.158;0.880;2023-04-01T01:54:48;995.076;;;9.0625;40.0547
73306;BME280;61530;51.158;0.880;2023-04-01T01:55:50;995.094;;;9.125;40.4455
73306;BME280;61530;51.158;0.880;2023-04-01T01:57:03;995.106;;;9.0;42.1033
73306;BME280;61530;51.158;0.880;2023-04-01T01:58:00;995.098;;;9.0625;41.5472
73306;BME280;61530;51.158;0.880;2023-04-01T01:59:07;995.139;;;9.0625;41.49
73306;BME280;61530;51.158;0.880;2023-04-01T02:00:09;995.172;;;9.0625;41.4443
73306;BME280;61530;51.158;0.880;2023-04-01T02:01:13;995.176;;;9.125;40.4855
73306;BME280;61530;51.158;0.880;2023-04-01T02:02:14;995.161;;;9.0625;41.0821
73306;BME280;61530;51.158;0.880;2023-04-01T02:03:21;995.208;;;9.0;41.3126
73306;BME280;61530;51.158;0.880;2023-04-01T02:04:23;995.216;;;9.0;40.8301
73306;BME280;61530;51.158;0.880;2023-04-01T02:05:28;995.254;;;9.0;41.3074
73306;BME280;61530;51.158;0.880;2023-04-01T02:06:34;995.228;;;9.0;41.3533
73306;BME280;61530;51.158;0.880;2023-04-01T02:07:36;995.222;;;9.0;40.1812
73306;BME280;61530;51.158;0.880;2023-04-01T02:08:41;995.242;;;9.0;41.4267
73306;BME280;61530;51.158;0.880;2023-04-01T02:09:42;995.228;;;9.0625;41.7803
73306;BME280;61530;51.158;0.880;2023-04-01T02:10:53;995.234;;;9.0625;42.258
73306;BME280;61530;51.158;0.880;2023-04-01T02:11:53;995.223;;;9.0625;42.4192
73306;BME280;61530;51.158;0.880;2023-04-01T02:12:58;995.241;;;8.9375;41.4377
73306;BME280;61530;51.158;0.880;2023-04-01T02:14:02;995.249;;;9.0;41.2834
73306;BME280;61530;51.158;0.880;2023-04-01T02:15:07;995.28;;;9.0;41.6225
73306;BME280;61530;51.158;0.880;2023-04-01T02:16:13;995.289;;;8.9375;41.6776
73306;BME280;61530;51.158;0.880;2023-04-01T02:17:13;995.32;;;8.9375;43.466
73306;BME280;61530;51.158;0.880;2023-04-01T02:18:15;995.327;;;8.9375;42.6648
73306;BME280;61530;51.158;0.880;2023-04-01T02:19:18;995.306;;;9.0;42.1259
73306;BME280;61530;51.158;0.880;2023-04-01T02:20:24;995.364;;;9.0;41.5127
73306;BME280;61530;51.158;0.880;2023-04-01T02:21:30;995.378;;;8.9375;42.2802
73306;BME280;61530;51.158;0.880;2023-04-01T02:22:33;995.39;;;8.875;41.3811
73306;BME280;61530;51.158;0.880;2023-04-01T02:23:35;995.368;;;8.9375;40.7209
73306;BME280;61530;51.158;0.880;2023-04-01T02:24:40;995.396;;;8.9375;41.8886
73306;BME280;61530;51.158;0.880;2023-04-01T02:25:43;995.386;;;8.875;41.8107
73306;BME280;61530;51.158;0.880;2023-04-01T02:26:46;995.449;;;8.9375;40.7899
73306;BME280;61530;51.158;0.880;2023-04-01T02:27:49;995.45;;;8.875;40.8642
73306;BME280;61530;51.158;0.880;2023-04-01T02:28:55;995.458;;;8.875;42.4173
73306;BME280;61530;51.158;0.880;2023-04-01T02:29:59;995.5;;;8.9375;41.1001
73306;BME280;61530;51.158;0.880;2023-04-01T02:31:03;995.524;;;8.9375;40.7554
73306;BME280;61530;51.158;0.880;2023-04-01T02:32:06;995.521;;;9.0;40.7499
73306;BME280;61530;51.158;0.880;2023-04-01T02:33:11;995.522;;;8.875;39.7786
73306;BME280;61530;51.158;0.880;2023-04-01T02:34:14;995.555;;;8.9375;39.687
73306;BME280;61530;51.158;0.880;2023-04-01T02:35:18;995.606;;;8.875;40.6639
73306;BME280;61530;51.158;0.880;2023-04-01T02:36:21;995.599;;;8.9375;40.0547
73306;BME280;61530;51.158;0.880;2023-04-01T02:37:27;995.592;;;8.875;40.1467
73306;BME280;61530;51.158;0.880;2023-04-01T02:38:30;995.682;;;8.875;39.8016
73306;BME280;61530;51.158;0.880;2023-04-01T02:39:34;995.661;;;8.9375;41.2145
73306;BME280;61530;51.158;0.880;2023-04-01T02:40:47;995.698;;;8.9375;40.9278
73306;BME280;61530;51.158;0.880;2023-04-01T02:41:44;995.67;;;8.875;41.1004
73306;BME280;61530;51.158;0.880;2023-04-01T02:42:46;995.674;;;8.875;40.0203
73306;BME280;61530;51.158;0.880;2023-04-01T02:43:50;995.681;;;8.9375;40.3995
73306;BME280;61530;51.158;0.880;2023-04-01T02:44:53;995.727;;;8.8125;40.3134
73306;BME280;61530;51.158;0.880;2023-04-01T02:45:59;995.715;;;8.875;39.8937
73306;BME280;61530;51.158;0.880;2023-04-01T02:47:03;995.749;;;8.875;39.911
73306;BME280;61530;51.158;0.880;2023-04-01T02:48:06;995.745;;;8.8125;41.6514
73306;BME280;61530;51.158;0.880;2023-04-01T02:49:10;995.756;;;8.8125;39.8307
73306;BME280;61530;51.158;0.880;2023-04-01T02:50:15;995.75;;;8.8125;39.6526
73306;BME280;61530;51.158;0.880;2023-04-01T02:51:18;995.787;;;8.8125;39.4855
73306;BME280;61530;51.158;0.880;2023-04-01T02:52:22;995.809;;;8.8125;39.7558
73306;BME280;61530;51.158;0.880;2023-04-01T02:53:25;995.828;;;8.75;39.6523
73306;BME280;61530;51.158;0.880;2023-04-01T02:54:31;995.831;;;8.8125;40.0088
73306;BME280;61530;51.158;0.880;2023-04-01T02:55:35;995.844;;;8.875;39.5321
73306;BME280;61530;51.158;0.880;2023-04-01T02:56:38;995.831;;;8.8125;41.0546
73306;BME280;61530;51.158;0.880;2023-04-01T02:57:41;995.879;;;8.8125;39.215
73306;BME280;61530;51.158;0.880;2023-04-01T02:58:47;995.839;;;8.8125;39.1175
73306;BME280;61530;51.158;0.880;2023-04-01T02:59:50;995.887;;;8.75;39.9858
73306;BME280;61530;51.158;0.880;2023-04-01T03:00:55;995.947;;;8.75;40.9827
73306;BME280;61530;51.158;0.880;2023-04-01T03:01:57;995.982;;;8.6875;41.1502
73306;BME280;61530;51.158;0.880;2023-04-01T03:03:03;995.961;;;8.75;40.4854
73306;BME280;61530;51.158;0.880;2023-04-01T03:04:06;996.006;;;8.75;40.4908
73306;BME280;61530;51.158;0.880;2023-04-01T03:05:10;996.011;;;8.6875;40.8561
73306;BME280;61530;51.158;0.880;2023-04-01T03:06:15;996.072;;;8.625;41.1317
73306;BME280;61530;51.158;0.880;2023-04-01T03:07:19;996.064;;;8.5625;41.67
73306;BME280;61530;51.158;0.880;2023-04-01T03:08:22;996.082;;;8.625;41.1312
73306;BME280;61530;51.158;0.880;2023-04-01T03:09:26;996.142;;;8.625;40.9316
73306;BME280;61530;51.158;0.880;2023-04-01T03:10:29;996.094;;;8.5625;41.4054
73306;BME280;61530;51.158;0.880;2023-04-01T03:11:35;996.146;;;8.5625;41.5724
73306;BME280;61530;51.158;0.880;2023-04-01T03:12:39;996.147;;;8.5625;41.8849
73306;BME280;61530;51.158;0.880;2023-04-01T03:13:42;996.18;;;8.5625;42.694
73306;BME280;61530;51.158;0.880;2023-04-01T03:14:45;996.18;;;8.5;41.4642
73306;BME280;61530;51.158;0.880;2023-04-01T03:15:51;996.191;;;8.5;42.077
73306;BME280;61530;51.158;0.880;2023-04-01T03:16:54;996.205;;;8.5;41.7733
73306;BME280;61530;51.158;0.880;2023-04-01T03:17:58;996.187;;;8.5;40.588
73306;BME280;61530;51.158;0.880;2023-04-01T03:19:01;996.245;;;8.5625;39.7448
73306;BME280;61530;51.158;0.880;2023-04-01T03:20:09;996.234;;;8.5;40.2842
73306;BME280;61530;51.158;0.880;2023-04-01T03:21:15;996.266;;;8.5625;39.6529
73306;BME280;61530;51.158;0.880;2023-04-01T03:22:14;996.247;;;8.5;39.0152
73306;BME280;61530;51.158;0.880;2023-04-01T03:23:18;996.26;;;8.5625;39.1411
73306;BME280;61530;51.158;0.880;2023-04-01T03:24:23;996.291;;;8.4375;39.9284
73306;BME280;61530;51.158;0.880;2023-04-01T03:25:26;996.336;;;8.5;39.4459
73306;BME280;61530;51.158;0.880;2023-04-01T03:26:30;996.325;;;8.4375;40.1696
73306;BME280;61530;51.158;0.880;2023-04-01T03:27:33;996.313;;;8.375;39.5895
73306;BME280;61530;51.158;0.880;2023-04-01T03:28:39;996.31;;;8.5;39.8367
73306;BME280;61530;51.158;0.880;2023-04-01T03:29:42;996.304;;;8.5;41.5068
73306;BME280;61530;51.158;0.880;2023-04-01T03:30:46;996.346;;;8.4375;41.5849
73306;BME280;61530;51.158;0.880;2023-04-01T03:31:49;996.321;;;8.5;39.8481
73306;BME280;61530;51.158;0.880;2023-04-01T03:32:55;996.346;;;8.4375;40.3015
73306;BME280;61530;51.158;0.880;2023-04-01T03:33:58;996.345;;;8.4375;39.8539
73306;BME280;61530;51.158;0.880;2023-04-01T03:35:02;996.351;;;8.4375;39.9572
73306;BME280;61530;51.158;0.880;2023-04-01T03:36:06;996.39;;;8.4375;39.6875
73306;BME280;61530;51.158;0.880;2023-04-01T03:37:11;996.386;;;8.5;40.1408
73306;BME280;61530;51.158;0.880;2023-04-01T03:38:15;996.395;;;8.5;39.6817
73306;BME280;61530;51.158;0.880;2023-04-01T03:39:18;996.388;;;8.5625;39.7737
73306;BME280;61530;51.158;0.880;2023-04-01T03:40:22;996.401;;;8.4375;40.1234
73306;BME280;61530;51.158;0.880;2023-04-01T03:41:27;996.431;;;8.4375;39.8251
73306;BME280;61530;51.158;0.880;2023-04-01T03:42:30;996.442;;;8.5;40.1408
73306;BME280;61530;51.158;0.880;2023-04-01T03:43:34;996.466;;;8.5;39.3831
73306;BME280;61530;51.158;0.880;2023-04-01T03:44:37;996.498;;;8.5625;40.5594
73306;BME280;61530;51.158;0.880;2023-04-01T03:45:44;996.517;;;8.4375;39.9112
73306;BME280;61530;51.158;0.880;2023-04-01T03:46:46;996.527;;;8.4375;40.7087
73306;BME280;61530;51.158;0.880;2023-04-01T03:47:50;996.535;;;8.5;40.0661
73306;BME280;61530;51.158;0.880;2023-04-01T03:48:53;996.56;;;8.375;41.9118
73306;BME280;61530;51.158;0.880;2023-04-01T03:49:59;996.555;;;8.4375;41.4191
73306;BME280;61530;51.158;0.880;2023-04-01T03:51:07;996.576;;;8.5;40.2842
73306;BME280;61530;51.158;0.880;2023-04-01T03:52:09;996.593;;;8.5;40.5027
73306;BME280;61530;51.158;0.880;2023-04-01T03:53:09;996.585;;;8.5;39.8423
73306;BME280;61530;51.158;0.880;2023-04-01T03:54:15;996.593;;;8.4375;39.1128
73306;BME280;61530;51.158;0.880;2023-04-01T03:55:18;996.588;;;8.5;39.808
73306;BME280;61530;51.158;0.880;2023-04-01T03:56:22;996.627;;;8.5;39.8366
73306;BME280;61530;51.158;0.880;2023-04-01T03:57:25;996.616;;;8.5;40.3531
73306;BME280;61530;51.158;0.880;2023-04-01T03:58:31;996.621;;;8.4375;40.2325
73306;BME280;61530;51.158;0.880;2023-04-01T03:59:34;996.653;;;8.4375;40.9262
73306;BME280;61530;51.158;0.880;2023-04-01T04:00:38;996.671;;;8.5;40.0662
73306;BME280;61530;51.158;0.880;2023-04-01T04:01:41;996.665;;;8.375;40.0605
73306;BME280;61530;51.158;0.880;2023-04-01T04:02:47;996.696;;;8.5;40.2672
73306;BME280;61530;51.158;0.880;2023-04-01T04:03:51;996.687;;;8.4375;40.7941
73306;BME280;61530;51.158;0.880;2023-04-01T04:04:54;996.724;;;8.4375;40.4678
73306;BME280;61530;51.158;0.880;2023-04-01T04:05:57;996.7;;;8.4375;40.4103
73306;BME280;61530;51.158;0.880;2023-04-01T04:07:03;996.719;;;8.375;40.2038
73306;BME280;61530;51.158;0.880;2023-04-01T04:08:06;996.745;;;8.375;40.2038
73306;BME280;61530;51.158;0.880;2023-04-01T04:09:10;996.738;;;8.4375;39.6874
73306;BME280;61530;51.158;0.880;2023-04-01T04:10:13;996.763;;;8.4375;39.8481
73306;BME280;61530;51.158;0.880;2023-04-01T04:11:19;996.792;;;8.375;40.7946
73306;BME280;61530;51.158;0.880;2023-04-01T04:12:22;996.785;;;8.375;39.6757
73306;BME280;61530;51.158;0.880;2023-04-01T04:13:26;996.805;;;8.375;39.5896
73306;BME280;61530;51.158;0.880;2023-04-01T04:14:29;996.81;;;8.4375;39.5722
73306;BME280;61530;51.158;0.880;2023-04-01T04:15:35;996.825;;;8.4375;39.1239
73306;BME280;61530;51.158;0.880;2023-04-01T04:16:38;996.828;;;8.4375;38.6187
73306;BME280;61530;51.158;0.880;2023-04-01T04:17:42;996.827;;;8.25;39.3482
73306;BME280;61530;51.158;0.880;2023-04-01T04:18:45;996.859;;;8.375;39.1932
73306;BME280;61530;51.158;0.880;2023-04-01T04:19:51;996.866;;;8.4375;38.9973
73306;BME280;61530;51.158;0.880;2023-04-01T04:20:54;996.866;;;8.375;38.8591
73306;BME280;61530;51.158;0.880;2023-04-01T04:21:58;996.895;;;8.375;39.4465
73306;BME280;61530;51.158;0.880;2023-04-01T04:23:02;996.924;;;8.375;39.3832
73306;BME280;61530;51.158;0.880;2023-04-01T04:24:08;996.936;;;8.375;39.389
73306;BME280;61530;51.158;0.880;2023-04-01T04:25:10;996.945;;;8.375;39.8367
73306;BME280;61530;51.158;0.880;2023-04-01T04:26:15;996.94;;;8.375;39.1996
73306;BME280;61530;51.158;0.880;2023-04-01T04:27:17;996.994;;;8.25;40.2895
73306;BME280;61530;51.158;0.880;2023-04-01T04:28:23;996.998;;;8.3125;40.0317
73306;BME280;61530;51.158;0.880;2023-04-01T04:29:26;997.019;;;8.375;39.3947
73306;BME280;61530;51.158;0.880;2023-04-01T04:30:30;997.019;;;8.375;38.2983
73306;BME280;61530;51.158;0.880;2023-04-01T04:31:33;997.057;;;8.375;39.0435
73306;BME280;61530;51.158;0.880;2023-04-01T04:32:39;997.05;;;8.375;38.6994
73306;BME280;61530;51.158;0.880;2023-04-01T04:33:42;997.062;;;8.375;39.8367
73306;BME280;61530;51.158;0.880;2023-04-01T04:34:46;997.073;;;8.3125;39.263
73306;BME280;61530;51.158;0.880;2023-04-01T04:35:50;997.08;;;8.3125;39.6817
73306;BME280;61530;51.158;0.880;2023-04-01T04:36:55;997.105;;;8.25;39.3892
73306;BME280;61530;51.158;0.880;2023-04-01T04:37:58;997.106;;;8.375;39.354
73306;BME280;61530;51.158;0.880;2023-04-01T04:39:02;997.124;;;8.3125;38.9862
73306;BME280;61530;51.158;0.880;2023-04-01T04:40:07;997.144;;;8.25;38.3656
73306;BME280;61530;51.158;0.880;2023-04-01T04:41:12;997.154;;;8.3125;38.6523
73306;BME280;61530;51.158;0.880;2023-04-01T04:42:14;997.165;;;8.3125;38.4634
73306;BME280;61530;51.158;0.880;2023-04-01T04:43:18;997.178;;;8.375;38.9458
73306;BME280;61530;51.158;0.880;2023-04-01T04:44:21;997.134;;;8.25;39.1712
73306;BME280;61530;51.158;0.880;2023-04-01T04:45:27;997.208;;;8.1875;39.36
73306;BME280;61530;51.158;0.880;2023-04-01T04:46:30;997.239;;;8.3125;39.8538
73306;BME280;61530;51.158;0.880;2023-04-01T04:47:34;997.223;;;8.3125;40.3758
73306;BME280;61530;51.158;0.880;2023-04-01T04:48:37;997.186;;;8.3125;39.2342
73306;BME280;61530;51.158;0.880;2023-04-01T04:49:43;997.216;;;8.25;40.5651
73306;BME280;61530;51.158;0.880;2023-04-01T04:50:47;997.221;;;8.25;39.148
73306;BME280;61530;51.158;0.880;2023-04-01T04:51:50;997.214;;;8.1875;40.7586
73306;BME280;61530;51.158;0.880;2023-04-01T04:52:53;997.206;;;8.1875;41.1709
73306;BME280;61530;51.158;0.880;2023-04-01T04:53:59;997.252;;;8.125;40.3063
73306;BME280;61530;51.158;0.880;2023-04-01T04:55:03;997.293;;;8.0625;40.2954
73306;BME280;61530;51.158;0.880;2023-04-01T04:56:06;997.308;;;8.125;39.206
73306;BME280;61530;51.158;0.880;2023-04-01T04:57:09;997.273;;;8.125;39.63
73306;BME280;61530;51.158;0.880;2023-04-01T05:00:28;997.292;;;8.0;39.2287
73306;BME280;61530;51.158;0.880;2023-04-01T05:01:33;997.311;;;8.125;39.217
73306;BME280;61530;51.158;0.880;2023-04-01T05:02:37;997.321;;;8.1875;38.9527
73306;BME280;61530;51.158;0.880;2023-04-01T05:03:43;997.305;;;8.0;38.62
73306;BME280;61530;51.158;0.880;2023-04-01T05:04:46;997.338;;;8.0625;39.1709
73306;BME280;61530;51.158;0.880;2023-04-01T05:05:51;997.346;;;8.0625;38.489
73306;BME280;61530;51.158;0.880;2023-04-01T05:06:53;997.365;;;8.0;38.8552
73306;BME280;61530;51.158;0.880;2023-04-01T05:07:58;997.391;;;8.0625;38.9712
73306;BME280;61530;51.158;0.880;2023-04-01T05:09:02;997.393;;;8.0;39.4759
73306;BME280;61530;51.158;0.880;2023-04-01T05:10:06;997.411;;;8.0;39.9342
73306;BME280;61530;51.158;0.880;2023-04-01T05:11:11;997.458;;;7.9375;39.7451
73306;BME280;61530;51.158;0.880;2023-04-01T05:12:15;997.445;;;8.0625;40.4437
73306;BME280;61530;51.158;0.880;2023-04-01T05:13:18;997.444;;;8.0;40.0545
73306;BME280;61530;51.158;0.880;2023-04-01T05:14:22;997.446;;;7.9375;39.9628
73306;BME280;61530;51.158;0.880;2023-04-01T05:15:25;997.507;;;8.125;39.4755
73306;BME280;61530;51.158;0.880;2023-04-01T05:16:30;997.487;;;7.9375;40.5354
73306;BME280;61530;51.158;0.880;2023-04-01T05:17:34;997.498;;;8.0625;40.3181
73306;BME280;61530;51.158;0.880;2023-04-01T05:18:37;997.496;;;8.125;40.1573
73306;BME280;61530;51.158;0.880;2023-04-01T05:19:41;997.522;;;8.0625;39.4814
73306;BME280;61530;51.158;0.880;2023-04-01T05:20:47;997.526;;;8.0;39.4012
73306;BME280;61530;51.158;0.880;2023-04-01T05:21:50;997.545;;;8.0625;39.9285
73306;BME280;61530;51.158;0.880;2023-04-01T05:22:56;997.534;;;8.0625;39.4069
73306;BME280;61530;51.158;0.880;2023-04-01T05:23:57;997.529;;;8.0;40.2887
73306;BME280;61530;51.158;0.880;2023-04-01T05:25:04;997.547;;;7.875;39.9743
73306;BME280;61530;51.158;0.880;2023-04-01T05:26:07;997.552;;;7.9375;39.4586
73306;BME280;61530;51.158;0.880;2023-04-01T05:27:09;997.6;;;8.0;39.2058
73306;BME280;61530;51.158;0.880;2023-04-01T05:28:13;997.613;;;8.0;39.5101
73306;BME280;61530;51.158;0.880;2023-04-01T05:29:19;997.613;;;7.9375;39.2921
73306;BME280;61530;51.158;0.880;2023-04-01T05:30:22;997.593;;;8.0;39.8253
73306;BME280;61530;51.158;0.880;2023-04-01T05:31:26;997.629;;;7.875;39.0913
73306;BME280;61530;51.158;0.880;2023-04-01T05:32:31;997.657;;;7.875;40.6727
73306;BME280;61530;51.158;0.880;2023-04-01T05:33:35;997.636;;;8.0625;39.2637
73306;BME280;61530;51.158;0.880;2023-04-01T05:34:38;997.642;;;7.875;39.2063
73306;BME280;61530;51.158;0.880;2023-04-01T05:35:41;997.652;;;7.875;39.5157
73306;BME280;61530;51.158;0.880;2023-04-01T05:36:45;997.648;;;8.0;39.9915
73306;BME280;61530;51.158;0.880;2023-04-01T05:37:51;997.7;;;8.0;39.6019
73306;BME280;61530;51.158;0.880;2023-04-01T05:38:55;997.7;;;7.9375;40.1349
73306;BME280;61530;51.158;0.880;2023-04-01T05:39:58;997.683;;;8.0;39.682
73306;BME280;61530;51.158;0.880;2023-04-01T05:41:02;997.725;;;8.0625;39.4581
73306;BME280;61530;51.158;0.880;2023-04-01T05:42:06;997.71;;;7.9375;39.9914
73306;BME280;61530;51.158;0.880;2023-04-01T05:43:10;997.724;;;8.0;39.309
73306;BME280;61530;51.158;0.880;2023-04-01T05:44:13;997.707;;;8.0625;41.0712
73306;BME280;61530;51.158;0.880;2023-04-01T05:45:17;997.739;;;8.0;40.4896
73306;BME280;61530;51.158;0.880;2023-04-01T05:46:23;997.757;;;8.0625;40.2492
73306;BME280;61530;51.158;0.880;2023-04-01T05:47:26;997.721;;;8.0625;40.8664
73306;BME280;61530;51.158;0.880;2023-04-01T05:48:30;997.748;;;8.0625;40.1346
73306;BME280;61530;51.158;0.880;2023-04-01T05:49:33;997.806;;;8.0625;40.7413
73306;BME280;61530;51.158;0.880;2023-04-01T05:50:40;997.807;;;8.0625;40.6846
73306;BME280;61530;51.158;0.880;2023-04-01T05:51:42;997.807;;;8.0;39.579
73306;BME280;61530;51.158;0.880;2023-04-01T05:52:46;997.825;;;8.0625;40.4206